Time;durP1;ratioP1;P1;durP2;ratioP2;P2;SDS_P1;SDS_P2;PMS_P1;PMS_P2;Temp;Humidity;BMP_temperature;BMP_pressure;BME280_temperature;BME280_humidity;BME280_pressure;Samples;Min_cycle;Max_cycle;Signal;HPM_P1;HPM_P2
2023/09/03 00:01:19;;;;;;;3.63;2.90;;;;;19.80;99264.00;;;;5078407;28;20075;-71
2023/09/03 00:03:46;;;;;;;3.70;2.67;;;;;19.80;99258.00;;;;5096263;28;20044;-71
2023/09/03 00:06:12;;;;;;;3.28;2.83;;;;;19.70;99269.00;;;;5094596;28;20055;-71
2023/09/03 00:08:39;;;;;;;6.10;3.20;;;;;19.70;99272.00;;;;5096279;28;20044;-71
2023/09/03 00:11:05;;;;;;;5.55;2.40;;;;;19.70;99275.00;;;;5094315;28;20044;-70
2023/09/03 00:13:32;;;;;;;3.05;2.72;;;;;19.70;99279.00;;;;5095056;28;20051;-69
2023/09/03 00:15:58;;;;;;;4.55;3.38;;;;;19.70;99284.00;;;;5094330;28;20042;-70
2023/09/03 00:18:25;;;;;;;5.97;3.50;;;;;19.70;99289.00;;;;5094478;28;20079;-69
2023/09/03 00:21:01;;;;;;;5.00;3.17;;;;;19.70;99285.00;;;;5094012;28;20052;-70
2023/09/03 00:23:28;;;;;;;6.32;3.10;;;;;19.60;99287.00;;;;5096114;28;20054;-70
2023/09/03 00:25:56;;;;;;;5.53;3.15;;;;;19.60;99277.00;;;;5094354;28;20130;-69
2023/09/03 00:28:23;;;;;;;4.63;2.92;;;;;19.60;99289.00;;;;5094317;28;20059;-69
2023/09/03 00:31:04;;;;;;;4.32;2.67;;;;;19.50;99289.00;;;;5093842;28;20105;-69
2023/09/03 00:33:31;;;;;;;4.53;3.28;;;;;19.40;99292.00;;;;5094321;28;20078;-69
2023/09/03 00:36:00;;;;;;;2.70;2.50;;;;;19.50;99288.00;;;;5093517;28;20043;-70
2023/09/03 00:38:27;;;;;;;6.68;2.95;;;;;19.40;99282.00;;;;5077197;28;20534;-70
2023/09/03 00:40:54;;;;;;;5.65;2.88;;;;;19.30;99289.00;;;;5094983;28;20050;-70
2023/09/03 00:43:21;;;;;;;6.00;2.88;;;;;19.30;99297.00;;;;5094002;28;20143;-70
2023/09/03 00:45:48;;;;;;;6.72;3.10;;;;;19.30;99295.00;;;;5076738;28;20048;-70
2023/09/03 00:48:19;;;;;;;13.10;3.58;;;;;19.20;99289.00;;;;5095151;28;20040;-69
2023/09/03 00:50:47;;;;;;;5.53;2.75;;;;;19.10;99289.00;;;;5094743;28;20067;-70
2023/09/03 00:53:16;;;;;;;7.25;2.63;;;;;19.00;99293.00;;;;5093758;28;20123;-69
2023/09/03 00:55:43;;;;;;;4.53;2.70;;;;;19.00;99289.00;;;;5093583;28;20444;-69
2023/09/03 00:58:11;;;;;;;4.10;2.25;;;;;19.00;99292.00;;;;5094644;28;20048;-69
2023/09/03 01:00:38;;;;;;;3.95;2.58;;;;;19.00;99289.00;;;;5093450;28;20048;-69
2023/09/03 01:03:05;;;;;;;4.72;2.88;;;;;19.00;99291.00;;;;5092359;28;20131;-69
2023/09/03 01:05:32;;;;;;;6.90;2.90;;;;;19.00;99298.00;;;;5076833;28;20271;-69
2023/09/03 01:08:00;;;;;;;3.67;2.75;;;;;19.00;99300.00;;;;5076446;28;20048;-68
2023/09/03 01:10:39;;;;;;;4.18;2.63;;;;;18.90;99299.00;;;;5093440;28;20044;-69
2023/09/03 01:13:17;;;;;;;4.25;2.38;;;;;18.90;99308.00;;;;5076600;28;20044;-69
2023/09/03 01:15:48;;;;;;;5.57;2.45;;;;;18.90;99308.00;;;;5093154;28;20628;-70
2023/09/03 01:18:25;;;;;;;2.90;2.60;;;;;18.80;99305.00;;;;5093322;28;20051;-69
2023/09/03 01:21:29;;;;;;;4.43;2.58;;;;;18.70;99307.00;;;;5092849;28;20151;-70
2023/09/03 01:24:25;;;;;;;9.70;2.85;;;;;18.50;99309.00;;;;5093021;28;20082;-69
2023/09/03 01:27:39;;;;;;;4.63;2.47;;;;;18.50;99311.00;;;;5092725;28;20047;-69
2023/09/03 01:30:06;;;;;;;4.30;2.70;;;;;18.60;99312.00;;;;5031470;28;20056;-70
2023/09/03 01:32:36;;;;;;;4.68;2.60;;;;;18.60;99317.00;;;;5084027;28;20050;-70
2023/09/03 01:35:03;;;;;;;3.55;2.30;;;;;18.60;99311.00;;;;5092626;28;20071;-70
2023/09/03 01:37:30;;;;;;;4.35;2.30;;;;;18.60;99313.00;;;;5092986;28;20138;-69
2023/09/03 01:39:57;;;;;;;3.20;2.70;;;;;18.70;99314.00;;;;5093751;28;20063;-70
2023/09/03 01:42:24;;;;;;;3.20;2.20;;;;;18.70;99314.00;;;;5092611;28;20057;-70
2023/09/03 01:44:52;;;;;;;6.47;2.65;;;;;18.60;99316.00;;;;5092483;28;20100;-70
2023/09/03 01:47:30;;;;;;;7.00;2.47;;;;;18.60;99317.00;;;;5092637;28;20058;-69
2023/09/03 01:50:22;;;;;;;7.55;2.30;;;;;18.60;99314.00;;;;5093872;28;20068;-69
2023/09/03 01:52:58;;;;;;;5.40;2.95;;;;;18.50;99307.00;;;;5092519;28;20048;-70
2023/09/03 01:55:25;;;;;;;8.00;2.20;;;;;18.50;99294.00;;;;5092389;28;20139;-70
2023/09/03 01:57:58;;;;;;;5.50;2.45;;;;;18.50;99304.00;;;;5092329;28;20130;-70
2023/09/03 02:00:24;;;;;;;5.60;2.50;;;;;18.40;99318.00;;;;5092244;28;20134;-70
2023/09/03 02:02:52;;;;;;;5.07;2.63;;;;;18.30;99311.00;;;;5094314;28;20051;-69
2023/09/03 02:05:19;;;;;;;4.75;1.92;;;;;18.30;99307.00;;;;5093408;28;20097;-69
2023/09/03 02:07:46;;;;;;;6.53;3.22;;;;;18.30;99313.00;;;;5093703;28;20047;-70
2023/09/03 02:10:13;;;;;;;4.15;2.10;;;;;18.20;99316.00;;;;5092163;28;20101;-69
2023/09/03 02:12:39;;;;;;;5.00;2.58;;;;;18.20;99319.00;;;;5092485;28;20078;-70
2023/09/03 02:15:06;;;;;;;3.42;2.20;;;;;18.10;99322.00;;;;5093539;28;20047;-69
2023/09/03 02:17:33;;;;;;;7.32;2.78;;;;;18.10;99319.00;;;;5094107;28;20131;-70
2023/09/03 02:20:00;;;;;;;5.30;2.10;;;;;18.10;99322.00;;;;5093592;28;20074;-69
2023/09/03 02:22:26;;;;;;;4.78;2.72;;;;;18.20;99324.00;;;;5092335;28;20152;-71
2023/09/03 02:24:53;;;;;;;5.07;2.38;;;;;18.20;99328.00;;;;5093567;28;20063;-70
2023/09/03 02:27:20;;;;;;;5.03;2.13;;;;;18.20;99328.00;;;;5093405;28;20082;-69
2023/09/03 02:29:47;;;;;;;4.05;2.08;;;;;18.20;99341.00;;;;5091610;28;20470;-70
2023/09/03 02:32:13;;;;;;;5.15;2.30;;;;;18.20;99343.00;;;;5091870;28;20572;-70
2023/09/03 02:34:40;;;;;;;3.33;2.10;;;;;18.10;99348.00;;;;5091604;28;20036;-70
2023/09/03 02:37:07;;;;;;;5.07;2.70;;;;;18.10;99354.00;;;;5074823;28;20051;-70
2023/09/03 02:39:34;;;;;;;3.40;2.30;;;;;18.20;99362.00;;;;5091517;28;20052;-70
2023/09/03 02:42:02;;;;;;;3.25;2.35;;;;;18.30;99362.00;;;;5091862;28;20048;-70
2023/09/03 02:44:29;;;;;;;2.70;2.25;;;;;18.40;99356.00;;;;5091469;28;20139;-71
2023/09/03 02:46:55;;;;;;;5.30;2.80;;;;;18.50;99355.00;;;;5091569;28;20054;-71
2023/09/03 02:49:22;;;;;;;5.90;2.33;;;;;18.60;99372.00;;;;5092515;28;20093;-71
2023/09/03 02:51:49;;;;;;;9.02;2.35;;;;;18.60;99367.00;;;;5074616;28;20048;-69
2023/09/03 02:54:15;;;;;;;6.47;2.50;;;;;18.60;99374.00;;;;5091630;28;20051;-70
2023/09/03 02:56:42;;;;;;;6.00;2.17;;;;;18.50;99376.00;;;;5091341;28;20133;-71
2023/09/03 02:59:08;;;;;;;3.85;2.38;;;;;18.60;99389.00;;;;5091137;28;20044;-71
2023/09/03 03:01:35;;;;;;;5.95;2.40;;;;;18.60;99379.00;;;;5091029;28;20040;-71
2023/09/03 03:04:02;;;;;;;2.50;2.30;;;;;18.70;99382.00;;;;5091461;28;20059;-71
2023/09/03 03:06:28;;;;;;;3.78;2.38;;;;;18.70;99384.00;;;;5092466;28;20036;-71
2023/09/03 03:08:55;;;;;;;4.25;2.15;;;;;18.80;99386.00;;;;5091481;28;20052;-71
2023/09/03 03:11:23;;;;;;;4.60;2.60;;;;;18.70;99382.00;;;;5090943;28;20447;-69
2023/09/03 03:13:54;;;;;;;4.07;2.28;;;;;18.60;99382.00;;;;5075087;28;20062;-70
2023/09/03 03:16:26;;;;;;;7.65;2.30;;;;;18.60;99378.00;;;;5074898;28;20047;-70
2023/09/03 03:18:53;;;;;;;3.28;2.15;;;;;18.70;99372.00;;;;5091156;28;20067;-70
2023/09/03 03:21:25;;;;;;;5.03;2.33;;;;;18.70;99373.00;;;;5090345;28;20072;-70
2023/09/03 03:23:57;;;;;;;5.10;2.60;;;;;18.60;99370.00;;;;5091021;28;20420;-71
2023/09/03 03:26:31;;;;;;;6.55;2.72;;;;;18.50;99377.00;;;;5074698;28;20047;-70
2023/09/03 03:28:58;;;;;;;6.75;3.08;;;;;18.40;99371.00;;;;5090730;28;20131;-71
2023/09/03 03:31:25;;;;;;;2.55;2.30;;;;;18.20;99369.00;;;;5090930;28;20044;-70
2023/09/03 03:33:54;;;;;;;4.60;2.20;;;;;18.10;99371.00;;;;5090849;28;20079;-70
2023/09/03 03:36:24;;;;;;;4.45;2.60;;;;;18.10;99383.00;;;;5090824;28;20040;-70
2023/09/03 03:38:51;;;;;;;5.55;2.40;;;;;18.20;99370.00;;;;5091126;28;20044;-70
2023/09/03 03:41:19;;;;;;;2.20;1.90;;;;;18.30;99388.00;;;;5090560;28;20135;-70
2023/09/03 03:43:51;;;;;;;7.82;2.92;;;;;18.30;99379.00;;;;5090888;28;20048;-69
2023/09/03 03:46:20;;;;;;;3.75;2.25;;;;;18.30;99381.00;;;;5074245;28;20044;-70
2023/09/03 03:48:50;;;;;;;4.63;2.45;;;;;18.10;99373.00;;;;5091137;28;20067;-69
2023/09/03 03:51:18;;;;;;;6.45;2.40;;;;;18.10;99375.00;;;;5090691;28;20044;-69
2023/09/03 03:53:45;;;;;;;5.20;2.20;;;;;18.10;99367.00;;;;5074262;28;20146;-70
2023/09/03 03:56:12;;;;;;;2.33;2.13;;;;;18.10;99369.00;;;;5091649;28;20500;-69
2023/09/03 03:58:42;;;;;;;4.53;2.25;;;;;18.10;99372.00;;;;5090818;28;20040;-69
2023/09/03 04:01:12;;;;;;;5.35;2.78;;;;;18.10;99373.00;;;;5073743;28;20052;-70
2023/09/03 04:03:39;;;;;;;5.28;3.20;;;;;18.10;99368.00;;;;5090585;28;20080;-70
2023/09/03 04:06:07;;;;;;;4.75;2.10;;;;;18.10;99372.00;;;;5090782;28;20489;-69
2023/09/03 04:08:38;;;;;;;5.28;1.95;;;;;18.10;99371.00;;;;5090695;28;20052;-69
2023/09/03 04:11:07;;;;;;;5.85;2.15;;;;;18.00;99364.00;;;;5090542;28;20087;-69
2023/09/03 04:13:34;;;;;;;3.80;2.05;;;;;17.80;99373.00;;;;5091143;28;20055;-69
2023/09/03 04:16:09;;;;;;;6.85;2.60;;;;;17.80;99369.00;;;;5091405;28;20044;-70
2023/09/03 04:18:37;;;;;;;7.07;2.78;;;;;17.70;99372.00;;;;5090599;28;20048;-69
2023/09/03 04:21:04;;;;;;;5.25;2.22;;;;;17.60;99381.00;;;;5090150;28;20102;-70
2023/09/03 04:23:32;;;;;;;3.53;2.10;;;;;17.60;99384.00;;;;5073899;28;20050;-69
2023/09/03 04:26:01;;;;;;;2.13;1.92;;;;;17.60;99380.00;;;;5090491;28;20050;-69
2023/09/03 04:28:29;;;;;;;5.10;2.50;;;;;17.60;99377.00;;;;5090455;28;20071;-69
2023/09/03 04:30:59;;;;;;;4.65;2.10;;;;;17.60;99387.00;;;;5090233;28;20075;-69
2023/09/03 04:33:29;;;;;;;3.35;2.45;;;;;17.70;99384.00;;;;5093681;28;20040;-69
2023/09/03 04:35:58;;;;;;;3.75;2.00;;;;;17.60;99385.00;;;;5090463;28;20067;-70
2023/09/03 04:38:27;;;;;;;4.20;2.33;;;;;17.50;99396.00;;;;5075345;28;20467;-70
2023/09/03 04:40:55;;;;;;;7.05;2.00;;;;;17.50;99399.00;;;;5094542;28;20485;-70
2023/09/03 04:43:23;;;;;;;3.28;2.20;;;;;17.60;99399.00;;;;5077584;28;20142;-69
2023/09/03 04:45:52;;;;;;;6.97;2.35;;;;;17.50;99416.00;;;;5077410;28;20051;-70
2023/09/03 04:48:21;;;;;;;5.18;2.40;;;;;17.40;99420.00;;;;5093892;28;20055;-70
2023/09/03 04:50:48;;;;;;;2.42;2.22;;;;;17.40;99421.00;;;;5093757;28;20079;-70
2023/09/03 04:53:15;;;;;;;3.75;2.08;;;;;17.50;99428.00;;;;5095056;28;20097;-70
2023/09/03 04:55:44;;;;;;;3.80;2.20;;;;;17.60;99438.00;;;;5094153;28;20476;-70
2023/09/03 04:58:10;;;;;;;4.50;2.42;;;;;17.70;99442.00;;;;5095496;28;20044;-70
2023/09/03 05:00:37;;;;;;;3.65;2.22;;;;;17.80;99450.00;;;;5095061;28;20043;-70
2023/09/03 05:03:06;;;;;;;2.78;2.15;;;;;17.90;99454.00;;;;5093639;28;20465;-70
2023/09/03 05:05:39;;;;;;;5.22;2.50;;;;;18.00;99452.00;;;;5076887;28;20044;-70
2023/09/03 05:08:08;;;;;;;3.25;2.58;;;;;18.00;99451.00;;;;5093801;28;20048;-70
2023/09/03 05:10:38;;;;;;;3.05;2.00;;;;;18.00;99453.00;;;;5093286;28;20098;-70
2023/09/03 05:13:05;;;;;;;3.40;2.58;;;;;18.10;99444.00;;;;5093443;28;20048;-70
2023/09/03 05:15:32;;;;;;;8.52;2.70;;;;;18.00;99439.00;;;;5094813;28;20036;-70
2023/09/03 05:18:01;;;;;;;7.18;2.63;;;;;18.10;99425.00;;;;5093658;28;20036;-69
2023/09/03 05:20:29;;;;;;;3.20;2.30;;;;;18.20;99429.00;;;;5076825;28;20138;-70
2023/09/03 05:22:55;;;;;;;2.67;2.00;;;;;18.20;99428.00;;;;5093518;28;20050;-70
2023/09/03 05:25:22;;;;;;;9.18;2.97;;;;;18.10;99427.00;;;;5093167;28;20401;-70
2023/09/03 05:27:49;;;;;;;4.07;2.60;;;;;18.10;99427.00;;;;5093214;28;20051;-70
2023/09/03 05:30:16;;;;;;;2.22;2.00;;;;;18.10;99426.00;;;;5076779;28;20424;-70
2023/09/03 05:32:43;;;;;;;5.88;2.20;;;;;18.00;99431.00;;;;5092893;28;20039;-70
2023/09/03 05:35:10;;;;;;;2.92;1.95;;;;;18.00;99427.00;;;;5092494;28;20056;-70
2023/09/03 05:37:36;;;;;;;3.42;2.13;;;;;18.00;99437.00;;;;5096127;28;20044;-70
2023/09/03 05:40:04;;;;;;;4.22;2.10;;;;;18.00;99430.00;;;;5092885;28;20062;-70
2023/09/03 05:42:32;;;;;;;4.93;2.78;;;;;18.00;99443.00;;;;5093059;28;20432;-70
2023/09/03 05:44:59;;;;;;;3.80;2.10;;;;;18.00;99445.00;;;;5093982;28;20078;-70
2023/09/03 05:47:26;;;;;;;3.58;2.33;;;;;18.00;99441.00;;;;5092703;28;20524;-70
2023/09/03 05:49:58;;;;;;;2.80;2.13;;;;;18.00;99446.00;;;;5091979;28;20123;-70
2023/09/03 05:52:25;;;;;;;4.93;2.08;;;;;18.10;99449.00;;;;5075985;28;20082;-70
2023/09/03 05:54:51;;;;;;;3.03;2.20;;;;;18.10;99444.00;;;;5092491;28;20492;-70
2023/09/03 05:57:18;;;;;;;4.05;2.30;;;;;18.10;99454.00;;;;5076093;28;20040;-70
2023/09/03 05:59:50;;;;;;;6.18;2.25;;;;;18.20;99454.00;;;;5092509;28;20048;-70
2023/09/03 06:02:18;;;;;;;5.50;2.67;;;;;18.20;99450.00;;;;5075903;28;20500;-70
2023/09/03 06:04:45;;;;;;;4.70;2.28;;;;;18.20;99455.00;;;;5092328;28;20052;-69
2023/09/03 06:07:12;;;;;;;5.70;2.78;;;;;18.20;99454.00;;;;5091499;28;20072;-70
2023/09/03 06:09:39;;;;;;;4.70;2.10;;;;;18.30;99460.00;;;;5092932;28;20064;-70
2023/09/03 06:12:06;;;;;;;3.72;2.15;;;;;18.40;99472.00;;;;5093371;28;20048;-70
2023/09/03 06:14:33;;;;;;;4.05;2.47;;;;;18.60;99466.00;;;;5093415;28;20044;-70
2023/09/03 06:16:59;;;;;;;4.68;2.80;;;;;18.70;99473.00;;;;5091891;28;20093;-70
2023/09/03 06:19:26;;;;;;;2.50;2.28;;;;;18.80;99473.00;;;;5093249;28;20048;-70
2023/09/03 06:21:53;;;;;;;6.43;2.28;;;;;18.90;99466.00;;;;5093999;28;20058;-70
2023/09/03 06:24:19;;;;;;;4.05;2.53;;;;;19.00;99476.00;;;;5093539;28;20075;-70
2023/09/03 06:26:46;;;;;;;2.17;1.92;;;;;19.10;99477.00;;;;5093078;28;20041;-71
2023/09/03 06:29:12;;;;;;;4.80;2.47;;;;;19.20;99471.00;;;;5092075;28;20040;-70
2023/09/03 06:31:39;;;;;;;3.97;2.40;;;;;19.20;99473.00;;;;5091757;28;20138;-70
2023/09/03 06:34:06;;;;;;;4.90;2.60;;;;;19.40;99467.00;;;;5093391;28;20036;-70
2023/09/03 06:36:32;;;;;;;2.20;2.00;;;;;19.50;99472.00;;;;5092716;28;20080;-70
2023/09/03 06:38:59;;;;;;;4.13;2.00;;;;;19.70;99481.00;;;;5092978;28;20040;-70
2023/09/03 06:41:26;;;;;;;3.22;2.42;;;;;19.80;99481.00;;;;5091534;28;20040;-70
2023/09/03 06:43:53;;;;;;;6.10;2.33;;;;;19.90;99495.00;;;;5092943;28;20039;-70
2023/09/03 06:46:19;;;;;;;4.47;2.70;;;;;19.80;99502.00;;;;5092660;28;20036;-70
2023/09/03 06:48:46;;;;;;;11.00;3.88;;;;;19.70;99506.00;;;;5092810;28;20072;-70
2023/09/03 06:51:15;;;;;;;5.32;2.70;;;;;19.80;99514.00;;;;5092551;28;20051;-70
2023/09/03 06:53:42;;;;;;;8.13;3.97;;;;;19.80;99518.00;;;;5091535;28;20044;-70
2023/09/03 06:56:08;;;;;;;5.30;2.83;;;;;19.80;99514.00;;;;5092424;28;20040;-71
2023/09/03 06:58:35;;;;;;;5.30;3.20;;;;;19.90;99515.00;;;;5092456;28;20381;-70
2023/09/03 07:01:03;;;;;;;4.10;3.22;;;;;20.00;99524.00;;;;5090373;28;20508;-70
2023/09/03 07:03:30;;;;;;;2.58;2.35;;;;;20.20;99526.00;;;;5092564;28;20101;-70
2023/09/03 07:05:57;;;;;;;6.25;3.90;;;;;20.40;99522.00;;;;5091252;28;20040;-71
2023/09/03 07:08:23;;;;;;;4.07;2.65;;;;;20.50;99520.00;;;;5092555;28;20044;-71
2023/09/03 07:10:50;;;;;;;5.50;3.17;;;;;20.60;99533.00;;;;5092453;28;20128;-70
2023/09/03 07:13:16;;;;;;;8.07;4.85;;;;;20.70;99521.00;;;;5092446;28;20040;-70
2023/09/03 07:15:43;;;;;;;5.18;2.63;;;;;20.90;99534.00;;;;5091243;28;20083;-70
2023/09/03 07:18:10;;;;;;;3.22;2.88;;;;;20.90;99521.00;;;;5091347;28;20050;-70
2023/09/03 07:20:36;;;;;;;4.25;3.08;;;;;21.00;99521.00;;;;5092469;28;20086;-70
2023/09/03 07:23:03;;;;;;;3.17;2.88;;;;;21.00;99528.00;;;;5091711;28;20071;-70
2023/09/03 07:25:31;;;;;;;3.58;3.28;;;;;21.10;99526.00;;;;5091218;28;20051;-69
2023/09/03 07:27:58;;;;;;;9.50;3.70;;;;;21.30;99523.00;;;;5092896;28;20123;-69
2023/09/03 07:30:24;;;;;;;6.22;3.53;;;;;21.30;99530.00;;;;5092478;28;20052;-69
2023/09/03 07:32:51;;;;;;;6.05;3.10;;;;;21.40;99533.00;;;;5092878;28;20047;-69
2023/09/03 07:35:18;;;;;;;6.47;2.40;;;;;21.60;99537.00;;;;5092329;28;20040;-69
2023/09/03 07:37:44;;;;;;;4.82;2.88;;;;;21.70;99538.00;;;;5090988;28;20036;-70
2023/09/03 07:40:11;;;;;;;3.60;2.53;;;;;21.80;99543.00;;;;5092137;28;20040;-70
2023/09/03 07:42:38;;;;;;;2.97;2.65;;;;;22.00;99547.00;;;;5092339;28;20051;-71
2023/09/03 07:45:05;;;;;;;5.55;3.38;;;;;22.20;99549.00;;;;5092158;28;20047;-70
2023/09/03 07:47:31;;;;;;;3.17;2.88;;;;;22.40;99546.00;;;;5092458;28;20062;-70
2023/09/03 07:49:58;;;;;;;4.88;2.88;;;;;22.60;99537.00;;;;5092008;28;20044;-71
2023/09/03 07:52:25;;;;;;;6.13;3.28;;;;;22.80;99541.00;;;;5090662;28;20558;-71
2023/09/03 07:54:51;;;;;;;15.85;11.60;;;;;22.80;99551.00;;;;5092093;28;20040;-69
2023/09/03 07:57:18;;;;;;;7.60;4.93;;;;;22.70;99557.00;;;;5092064;28;20040;-70
2023/09/03 07:59:44;;;;;;;4.93;2.67;;;;;22.70;99557.00;;;;5091953;28;20076;-70
2023/09/03 08:02:11;;;;;;;4.32;3.00;;;;;22.70;99561.00;;;;5092121;28;20050;-69
2023/09/03 08:04:40;;;;;;;5.70;4.93;;;;;22.70;99562.00;;;;5092148;28;20048;-69
2023/09/03 08:07:07;;;;;;;6.97;4.43;;;;;22.80;99551.00;;;;5090656;28;20036;-70
2023/09/03 08:09:34;;;;;;;5.20;2.28;;;;;22.80;99564.00;;;;5073745;28;20051;-70
2023/09/03 08:12:00;;;;;;;3.42;2.50;;;;;22.80;99568.00;;;;5091247;28;20040;-70
2023/09/03 08:14:27;;;;;;;5.20;3.50;;;;;23.00;99568.00;;;;5094534;28;20412;-70
2023/09/03 08:16:53;;;;;;;6.43;3.30;;;;;23.00;99565.00;;;;5095817;28;20089;-69
2023/09/03 08:19:20;;;;;;;3.47;3.17;;;;;23.10;99566.00;;;;5094581;28;20054;-70
2023/09/03 08:21:47;;;;;;;3.28;2.60;;;;;23.00;99568.00;;;;5094623;28;20051;-70
2023/09/03 08:24:14;;;;;;;6.68;2.70;;;;;23.00;99568.00;;;;5094599;28;20044;-70
2023/09/03 08:26:41;;;;;;;4.95;2.67;;;;;23.10;99572.00;;;;5094244;28;20040;-71
2023/09/03 08:29:08;;;;;;;3.97;3.03;;;;;23.00;99570.00;;;;5095190;28;20052;-70
2023/09/03 08:31:35;;;;;;;4.70;2.95;;;;;23.10;99576.00;;;;5095159;28;20043;-70
2023/09/03 08:34:02;;;;;;;2.85;2.40;;;;;23.40;99579.00;;;;5095267;28;20454;-70
2023/09/03 08:36:29;;;;;;;4.10;3.63;;;;;23.40;99580.00;;;;5095059;28;20468;-70
2023/09/03 08:38:55;;;;;;;4.72;3.53;;;;;23.50;99580.00;;;;5095116;28;20481;-70
2023/09/03 08:41:25;;;;;;;4.97;2.67;;;;;23.70;99591.00;;;;5095012;28;20040;-68
2023/09/03 08:43:56;;;;;;;8.52;4.32;;;;;23.70;99596.00;;;;5093963;28;20496;-69
2023/09/03 08:46:25;;;;;;;5.53;3.95;;;;;23.90;99605.00;;;;5094960;28;20044;-70
2023/09/03 08:48:54;;;;;;;4.60;4.07;;;;;23.90;99611.00;;;;5093912;28;20130;-70
2023/09/03 08:51:21;;;;;;;4.65;3.90;;;;;24.00;99604.00;;;;5094022;28;20052;-70
2023/09/03 08:53:51;;;;;;;4.55;3.00;;;;;24.00;99618.00;;;;5094490;28;20071;-70
2023/09/03 08:56:19;;;;;;;2.58;2.30;;;;;24.20;99614.00;;;;5095023;28;20138;-70
2023/09/03 08:58:45;;;;;;;2.58;2.22;;;;;24.20;99621.00;;;;5093711;28;20182;-70
2023/09/03 09:01:13;;;;;;;2.60;1.63;;;;;24.10;99621.00;;;;5094964;28;20036;-69
2023/09/03 09:03:42;;;;;;;2.30;1.83;;;;;24.10;99622.00;;;;5094943;28;20040;-70
2023/09/03 09:06:09;;;;;;;2.10;1.90;;;;;24.20;99628.00;;;;5093535;28;20048;-70
2023/09/03 09:08:35;;;;;;;2.83;1.40;;;;;24.20;99630.00;;;;5076742;28;20059;-69
2023/09/03 09:11:08;;;;;;;2.45;1.85;;;;;24.10;99634.00;;;;5093271;28;20054;-70
2023/09/03 09:13:37;;;;;;;2.55;2.00;;;;;24.10;99640.00;;;;5094743;28;20505;-69
2023/09/03 09:16:04;;;;;;;2.97;1.88;;;;;24.10;99643.00;;;;5093556;28;20123;-70
2023/09/03 09:18:31;;;;;;;3.08;1.95;;;;;24.00;99636.00;;;;5094949;28;20066;-68
2023/09/03 09:20:59;;;;;;;1.63;1.52;;;;;24.00;99645.00;;;;5094627;28;20040;-68
2023/09/03 09:23:26;;;;;;;7.60;1.60;;;;;24.00;99644.00;;;;5093150;28;20507;-68
2023/09/03 09:25:58;;;;;;;2.58;1.90;;;;;24.10;99633.00;;;;5094316;28;20051;-68
2023/09/03 09:28:26;;;;;;;1.80;1.55;;;;;24.10;99634.00;;;;5094305;28;20454;-68
2023/09/03 09:30:57;;;;;;;3.00;2.22;;;;;24.10;99638.00;;;;5094748;28;20044;-67
2023/09/03 09:33:24;;;;;;;2.40;1.98;;;;;24.10;99638.00;;;;5094448;28;20063;-68
2023/09/03 09:35:53;;;;;;;3.65;2.10;;;;;24.30;99643.00;;;;5092738;28;20109;-68
2023/09/03 09:38:34;;;;;;;2.60;2.22;;;;;24.40;99634.00;;;;5094174;28;20477;-68
2023/09/03 09:41:19;;;;;;;2.15;1.67;;;;;24.50;99637.00;;;;5093106;28;20408;-68
2023/09/03 09:43:46;;;;;;;3.47;1.98;;;;;24.40;99630.00;;;;5093013;28;20492;-68
2023/09/03 09:46:29;;;;;;;3.08;2.55;;;;;24.50;99632.00;;;;5094172;28;20043;-68
2023/09/03 09:49:01;;;;;;;3.15;2.85;;;;;24.60;99625.00;;;;5094433;28;20081;-68
2023/09/03 09:51:29;;;;;;;4.50;2.50;;;;;24.60;99629.00;;;;5092983;28;20051;-69
2023/09/03 09:54:03;;;;;;;3.30;3.00;;;;;24.70;99620.00;;;;5094496;28;20044;-68
2023/09/03 09:56:34;;;;;;;10.13;7.45;;;;;24.80;99623.00;;;;5094218;28;20048;-68
2023/09/03 09:59:00;;;;;;;4.22;2.95;;;;;24.90;99631.00;;;;5094185;28;20485;-69
2023/09/03 10:01:42;;;;;;;3.80;2.78;;;;;25.10;99634.00;;;;5094282;28;20085;-68
2023/09/03 10:04:09;;;;;;;6.10;3.38;;;;;25.20;99624.00;;;;5094055;28;20097;-69
2023/09/03 10:06:36;;;;;;;2.85;2.63;;;;;25.20;99628.00;;;;5093965;28;20055;-69
2023/09/03 10:09:05;;;;;;;3.33;2.60;;;;;25.30;99624.00;;;;5092799;28;20048;-70
2023/09/03 10:11:31;;;;;;;2.65;2.38;;;;;25.40;99621.00;;;;5093995;28;20078;-69
2023/09/03 10:13:58;;;;;;;2.15;1.95;;;;;25.60;99622.00;;;;5092965;28;20247;-70
2023/09/03 10:16:25;;;;;;;2.38;2.17;;;;;25.50;99628.00;;;;5092484;28;20039;-69
2023/09/03 10:18:54;;;;;;;2.22;2.00;;;;;25.60;99623.00;;;;5094264;28;20043;-69
2023/09/03 10:21:24;;;;;;;2.42;2.22;;;;;25.70;99617.00;;;;5093314;28;20063;-68
2023/09/03 10:24:15;;;;;;;3.65;2.40;;;;;25.60;99622.00;;;;5093324;28;20044;-69
2023/09/03 10:26:47;;;;;;;2.85;2.65;;;;;25.50;99621.00;;;;5093047;28;20574;-69
2023/09/03 10:29:19;;;;;;;3.58;2.80;;;;;25.60;99622.00;;;;5092139;28;20048;-68
2023/09/03 10:31:48;;;;;;;3.45;2.47;;;;;25.70;99615.00;;;;5092233;28;20048;-69
2023/09/03 10:34:15;;;;;;;3.22;2.92;;;;;25.60;99605.00;;;;5093190;28;20040;-69
2023/09/03 10:37:04;;;;;;;3.67;3.30;;;;;25.70;99602.00;;;;5092875;28;20044;-69
2023/09/03 10:39:32;;;;;;;3.42;2.75;;;;;25.80;99615.00;;;;5092894;28;20093;-69
2023/09/03 10:42:23;;;;;;;3.03;2.75;;;;;25.90;99612.00;;;;5092814;28;20062;-70
2023/09/03 10:44:51;;;;;;;3.80;3.45;;;;;25.90;99610.00;;;;5092597;28;20496;-70
2023/09/03 10:47:18;;;;;;;3.63;3.33;;;;;25.90;99600.00;;;;5092846;28;20036;-69
2023/09/03 10:49:49;;;;;;;2.63;2.42;;;;;26.00;99612.00;;;;5092331;28;20423;-68
2023/09/03 10:52:28;;;;;;;2.70;2.50;;;;;26.10;99608.00;;;;5092645;28;20051;-68
2023/09/03 10:55:11;;;;;;;2.88;2.67;;;;;26.10;99614.00;;;;5091174;28;20101;-67
2023/09/03 10:57:38;;;;;;;10.55;3.00;;;;;26.10;99615.00;;;;5092400;28;20078;-67
2023/09/03 11:00:07;;;;;;;3.08;2.75;;;;;26.10;99615.00;;;;5092215;28;20131;-67
2023/09/03 11:02:35;;;;;;;3.28;2.80;;;;;26.10;99617.00;;;;5091410;28;20078;-67
2023/09/03 11:05:21;;;;;;;2.92;2.72;;;;;26.10;99618.00;;;;5091067;28;20044;-67
2023/09/03 11:08:09;;;;;;;3.20;2.78;;;;;26.10;99619.00;;;;5091340;28;20044;-67
2023/09/03 11:10:35;;;;;;;3.58;2.60;;;;;26.10;99617.00;;;;5092053;28;20114;-67
2023/09/03 11:13:04;;;;;;;3.53;2.42;;;;;26.10;99619.00;;;;5092489;28;20491;-67
2023/09/03 11:15:31;;;;;;;2.70;2.50;;;;;26.20;99619.00;;;;5092060;28;20082;-67
2023/09/03 11:17:57;;;;;;;4.03;3.00;;;;;26.50;99619.00;;;;5092250;28;20608;-67
2023/09/03 11:20:34;;;;;;;2.95;2.47;;;;;26.50;99624.00;;;;5091905;28;20218;-68
2023/09/03 11:23:16;;;;;;;2.75;2.53;;;;;26.60;99620.00;;;;5092715;28;20044;-68
2023/09/03 11:25:43;;;;;;;3.03;2.72;;;;;26.70;99621.00;;;;5074253;28;20066;-69
2023/09/03 11:28:11;;;;;;;2.83;2.63;;;;;26.80;99618.00;;;;5091943;28;20040;-70
2023/09/03 11:30:43;;;;;;;3.97;2.33;;;;;26.70;99620.00;;;;5092035;28;20036;-69
2023/09/03 11:33:26;;;;;;;2.92;2.65;;;;;26.70;99625.00;;;;5090764;28;20074;-69
2023/09/03 11:35:53;;;;;;;;;;;;;26.80;99621.00;;;;5092549;28;20035;-69
2023/09/03 11:38:23;;;;;;;3.58;2.83;;;;;26.90;99627.00;;;;5091047;28;20442;-69
2023/09/03 11:40:56;;;;;;;3.53;3.22;;;;;26.90;99639.00;;;;5091031;28;20443;-69
2023/09/03 11:43:24;;;;;;;5.20;4.70;;;;;27.00;99624.00;;;;5092328;28;20159;-69
2023/09/03 11:45:51;;;;;;;2.90;2.70;;;;;26.90;99631.00;;;;5092446;28;20496;-69
2023/09/03 11:48:25;;;;;;;2.88;2.55;;;;;26.90;99632.00;;;;5093955;28;20051;-69
2023/09/03 11:50:52;;;;;;;4.20;3.30;;;;;26.90;99624.00;;;;5096027;28;20450;-69
2023/09/03 11:53:19;;;;;;;2.70;2.40;;;;;26.80;99626.00;;;;5096005;28;20479;-69
2023/09/03 11:55:53;;;;;;;3.30;2.42;;;;;26.80;99618.00;;;;5096009;28;20048;-69
2023/09/03 11:58:22;;;;;;;3.85;2.78;;;;;27.00;99620.00;;;;5095479;28;20105;-69
2023/09/03 12:00:49;;;;;;;3.42;3.03;;;;;27.10;99620.00;;;;5094984;28;20496;-69
2023/09/03 12:03:16;;;;;;;3.47;3.17;;;;;27.00;99613.00;;;;5094891;28;20044;-69
2023/09/03 12:05:43;;;;;;;3.28;2.97;;;;;27.00;99610.00;;;;5077768;28;20592;-69
2023/09/03 12:08:10;;;;;;;3.88;3.45;;;;;27.00;99608.00;;;;5094884;28;20036;-69
2023/09/03 12:10:36;;;;;;;4.07;3.30;;;;;27.10;99604.00;;;;5094335;28;20036;-69
2023/09/03 12:13:04;;;;;;;3.28;2.88;;;;;27.10;99604.00;;;;5095846;28;20052;-69
2023/09/03 12:15:31;;;;;;;3.63;3.20;;;;;27.20;99610.00;;;;5095816;28;20366;-69
2023/09/03 12:18:08;;;;;;;2.97;2.78;;;;;27.20;99612.00;;;;5095619;28;20043;-69
2023/09/03 12:20:39;;;;;;;10.68;9.63;;;;;27.10;99624.00;;;;5095939;28;20048;-69
2023/09/03 12:23:24;;;;;;;5.97;4.13;;;;;27.00;99612.00;;;;5095277;28;20050;-69
2023/09/03 12:25:50;;;;;;;4.40;3.78;;;;;27.00;99613.00;;;;5096387;28;20097;-69
2023/09/03 12:28:17;;;;;;;2.85;2.28;;;;;27.00;99612.00;;;;5095975;28;20126;-69